Roby, Missouri
Current Conditions -  °F | °C
As of 12:58 PM on Saturday 25 Oct 2014 (Local Time) from KTBN Reporting Station
Clear Clear  
Wind Chill: 78°   Ceiling: Unl
Heat Index: 80°   Visibility: 10mi
Dew Point: 65°   Wind: 1mph
Humidity: 65%   Direction: NA
Pressure: 30.06"   Gusts: NA
Location:  37.52°N, 92.14°W
Report Text: KTBN 251758Z AUTO VRB01KT 10SM CLR 25/18 A3006 RMK AO2 SLP174 T02540184 10254 20133 58006
Loading
Personal Weather Stations






























Interactive Weather Map
Tropical Storm Tracking
New forecast layout! Learn more

10-Day Weather Forecast

Advertisements
Track Severe Weather on mobile